Time,TemperatureF,DewpointF,PressureIn,WindDirection,WindDirectionDegrees,WindSpeedMPH,WindSpeedGustMPH,Humidity,HourlyPrecipIn,Conditions,Clouds,dailyrainin,SoftwareType,DateUTC
2013-11-18 00:01:00,51.6,41.8,30.02,West,267,0.0,0.0,69,0.00,,---,0.00,VWS V14.00,2013-11-18 07:01:00,
2013-11-18 00:06:00,52.1,41.9,30.02,West,267,0.0,0.0,68,0.00,,---,0.00,VWS V14.00,2013-11-18 07:06:00,
2013-11-18 00:11:00,52.7,43.2,30.02,West,267,0.0,0.0,70,0.00,,---,0.00,VWS V14.00,2013-11-18 07:11:00,
2013-11-18 00:16:00,53.1,42.5,30.02,West,267,0.0,0.0,67,0.00,,---,0.00,VWS V14.00,2013-11-18 07:16:00,
2013-11-18 00:21:00,53.4,43.5,30.02,West,267,0.0,0.0,69,0.00,,---,0.00,VWS V14.00,2013-11-18 07:21:00,
2013-11-18 00:26:00,53.7,43.8,30.02,West,267,0.0,0.0,69,0.00,,---,0.00,VWS V14.00,2013-11-18 07:26:00,
2013-11-18 00:31:00,53.8,42.7,30.02,West,267,0.0,0.0,66,0.00,,---,0.00,VWS V14.00,2013-11-18 07:31:00,
2013-11-18 00:36:00,54.2,44.6,30.02,West,267,0.0,0.0,70,0.00,,---,0.00,VWS V14.00,2013-11-18 07:36:00,
2013-11-18 00:41:00,54.7,44.4,30.02,West,267,0.0,0.0,68,0.00,,---,0.00,VWS V14.00,2013-11-18 07:41:00,
2013-11-18 00:46:00,54.8,43.7,30.02,West,267,0.0,0.0,66,0.00,,---,0.00,VWS V14.00,2013-11-18 07:46:00,
2013-11-18 00:51:00,54.6,43.5,30.02,West,267,0.0,0.0,66,0.00,,---,0.00,VWS V14.00,2013-11-18 07:51:00,
2013-11-18 00:56:00,54.5,43.4,30.02,West,267,0.0,0.0,66,0.00,,---,0.00,VWS V14.00,2013-11-18 07:56:00,
2013-11-18 01:01:00,54.4,44.1,30.02,West,267,0.0,0.0,68,0.00,,---,0.00,VWS V14.00,2013-11-18 08:01:00,
2013-11-18 01:06:00,54.7,44.7,30.02,West,267,0.0,0.0,69,0.00,,---,0.00,VWS V14.00,2013-11-18 08:06:00,
2013-11-18 01:11:00,54.8,44.1,30.02,West,267,0.0,0.0,67,0.00,,---,0.00,VWS V14.00,2013-11-18 08:11:00,
2013-11-18 01:16:00,54.4,42.9,30.01,West,267,0.0,0.0,65,0.00,,---,0.00,VWS V14.00,2013-11-18 08:16:00,
2013-11-18 01:21:00,53.9,43.2,30.01,West,267,0.0,0.0,67,0.00,,---,0.00,VWS V14.00,2013-11-18 08:21:00,
2013-11-18 01:26:00,53.4,43.1,30.01,West,267,0.0,0.0,68,0.00,,---,0.00,VWS V14.00,2013-11-18 08:26:00,
2013-11-18 01:31:00,53.0,43.5,30.01,West,267,0.0,0.0,70,0.00,,---,0.00,VWS V14.00,2013-11-18 08:31:00,
2013-11-18 01:36:00,52.8,43.7,30.01,West,267,0.0,0.0,71,0.00,,---,0.00,VWS V14.00,2013-11-18 08:36:00,
2013-11-18 01:41:00,52.5,43.8,30.01,West,267,0.0,0.0,72,0.00,,---,0.00,VWS V14.00,2013-11-18 08:41:00,
2013-11-18 01:46:00,52.2,40.8,30.01,West,267,0.0,0.0,65,0.00,,---,0.00,VWS V14.00,2013-11-18 08:46:00,
2013-11-18 01:51:00,51.5,42.0,30.01,West,267,0.0,0.0,70,0.00,,---,0.00,VWS V14.00,2013-11-18 08:51:00,
2013-11-18 01:56:00,51.2,41.8,30.01,West,267,0.0,0.0,70,0.00,,---,0.00,VWS V14.00,2013-11-18 08:56:00,
2013-11-18 02:01:00,51.1,42.4,30.01,West,267,0.0,0.0,72,0.00,,---,0.00,VWS V14.00,2013-11-18 09:01:00,
2013-11-18 02:06:00,51.4,43.8,30.01,West,267,0.0,0.0,75,0.00,,---,0.00,VWS V14.00,2013-11-18 09:06:00,
2013-11-18 02:11:00,51.8,43.4,30.00,West,267,0.0,0.0,73,0.00,,---,0.00,VWS V14.00,2013-11-18 09:11:00,
2013-11-18 02:16:00,51.8,41.2,30.00,West,267,0.0,0.0,67,0.00,,---,0.00,VWS V14.00,2013-11-18 09:16:00,
2013-11-18 02:21:00,51.5,42.0,30.00,West,267,0.0,0.0,70,0.00,,---,0.00,VWS V14.00,2013-11-18 09:21:00,
2013-11-18 02:26:00,51.7,44.0,30.00,West,267,0.0,0.0,75,0.00,,---,0.00,VWS V14.00,2013-11-18 09:26:00,
2013-11-18 02:31:00,52.0,42.2,30.00,West,267,0.0,0.0,69,0.00,,---,0.00,VWS V14.00,2013-11-18 09:31:00,
2013-11-18 02:36:00,51.9,42.1,30.00,West,267,0.0,0.0,69,0.00,,---,0.00,VWS V14.00,2013-11-18 09:36:00,
2013-11-18 02:41:00,51.8,43.1,30.00,West,267,0.0,0.0,72,0.00,,---,0.00,VWS V14.00,2013-11-18 09:41:00,
2013-11-18 02:46:00,51.8,43.1,30.00,West,267,0.0,0.0,72,0.00,,---,0.00,VWS V14.00,2013-11-18 09:46:00,
2013-11-18 02:51:00,51.9,43.2,30.00,West,267,0.0,0.0,72,0.00,,---,0.00,VWS V14.00,2013-11-18 09:51:00,
2013-11-18 02:56:00,52.0,42.5,30.00,West,267,0.0,0.0,70,0.00,,---,0.00,VWS V14.00,2013-11-18 09:56:00,
2013-11-18 03:01:00,52.3,44.3,30.00,West,267,0.0,0.0,74,0.00,,---,0.00,VWS V14.00,2013-11-18 10:01:00,
2013-11-18 03:06:00,52.9,44.8,30.00,West,267,0.0,0.0,74,0.00,,---,0.00,VWS V14.00,2013-11-18 10:06:00,
2013-11-18 03:11:00,53.1,44.3,29.99,West,267,0.0,0.0,72,0.00,,---,0.00,VWS V14.00,2013-11-18 10:11:00,
2013-11-18 03:16:00,53.2,44.8,29.99,West,267,0.0,0.0,73,0.00,,---,0.00,VWS V14.00,2013-11-18 10:16:00,
2013-11-18 03:21:00,53.4,45.7,29.99,West,267,0.0,0.0,75,0.00,,---,0.00,VWS V14.00,2013-11-18 10:21:00,
2013-11-18 03:26:00,53.5,45.1,29.99,West,267,0.0,0.0,73,0.00,,---,0.00,VWS V14.00,2013-11-18 10:26:00,
2013-11-18 03:31:00,53.0,43.9,29.99,West,267,0.0,0.0,71,0.00,,---,0.00,VWS V14.00,2013-11-18 10:31:00,
2013-11-18 03:36:00,52.3,42.5,29.99,West,267,0.0,0.0,69,0.00,,---,0.00,VWS V14.00,2013-11-18 10:36:00,
2013-11-18 03:41:00,51.6,43.2,29.99,West,267,0.0,0.0,73,0.00,,---,0.00,VWS V14.00,2013-11-18 10:41:00,
2013-11-18 03:46:00,51.0,41.9,29.99,West,267,0.0,0.0,71,0.00,,---,0.00,VWS V14.00,2013-11-18 10:46:00,
2013-11-18 03:51:00,50.7,43.4,29.99,West,267,0.0,0.0,76,0.00,,---,0.00,VWS V14.00,2013-11-18 10:51:00,
2013-11-18 03:56:00,50.6,43.3,29.99,West,267,0.0,0.0,76,0.00,,---,0.00,VWS V14.00,2013-11-18 10:56:00,
2013-11-18 04:01:00,50.3,42.0,29.99,West,267,0.0,0.0,73,0.00,,---,0.00,VWS V14.00,2013-11-18 11:01:00,
2013-11-18 04:06:00,49.9,43.3,29.98,West,267,0.0,0.0,78,0.00,,---,0.00,VWS V14.00,2013-11-18 11:06:00,
2013-11-18 04:11:00,49.8,43.2,29.99,West,267,0.0,0.0,78,0.00,,---,0.00,VWS V14.00,2013-11-18 11:11:00,
2013-11-18 04:16:00,49.6,43.4,29.99,West,267,0.0,0.0,79,0.00,,---,0.00,VWS V14.00,2013-11-18 11:16:00,
2013-11-18 04:21:00,49.6,43.7,29.98,West,267,0.0,0.0,80,0.00,,---,0.00,VWS V14.00,2013-11-18 11:21:00,
2013-11-18 04:26:00,49.2,42.6,29.98,West,267,0.0,0.0,78,0.00,,---,0.00,VWS V14.00,2013-11-18 11:26:00,
2013-11-18 04:31:00,48.5,41.3,29.98,West,267,0.0,0.0,76,0.00,,---,0.00,VWS V14.00,2013-11-18 11:31:00,
2013-11-18 04:36:00,47.3,38.4,29.98,West,267,0.0,0.0,71,0.00,,---,0.00,VWS V14.00,2013-11-18 11:36:00,
2013-11-18 04:41:00,46.4,39.6,29.99,West,267,0.0,0.0,77,0.00,,---,0.00,VWS V14.00,2013-11-18 11:41:00,
2013-11-18 04:46:00,45.9,39.4,29.99,West,267,0.0,0.0,78,0.00,,---,0.00,VWS V14.00,2013-11-18 11:46:00,
2013-11-18 04:51:00,45.6,39.8,29.99,West,267,0.0,0.0,80,0.00,,---,0.00,VWS V14.00,2013-11-18 11:51:00,
2013-11-18 04:56:00,45.4,40.2,29.99,West,267,0.0,0.0,82,0.00,,---,0.00,VWS V14.00,2013-11-18 11:56:00,
2013-11-18 05:01:00,45.8,41.2,29.99,West,267,0.0,0.0,84,0.00,,---,0.00,VWS V14.00,2013-11-18 12:01:00,
2013-11-18 05:06:00,45.9,41.3,29.99,West,267,0.0,0.0,84,0.00,,---,0.00,VWS V14.00,2013-11-18 12:06:00,
2013-11-18 05:11:00,46.8,43.4,29.99,West,267,0.0,0.0,88,0.00,,---,0.00,VWS V14.00,2013-11-18 12:11:00,
2013-11-18 05:16:00,47.3,42.4,29.99,West,267,0.0,0.0,83,0.00,,---,0.00,VWS V14.00,2013-11-18 12:16:00,
2013-11-18 05:21:00,47.6,42.7,29.99,West,267,0.0,0.0,83,0.00,,---,0.00,VWS V14.00,2013-11-18 12:21:00,
2013-11-18 05:26:00,47.8,42.9,29.99,West,267,0.0,0.0,83,0.00,,---,0.00,VWS V14.00,2013-11-18 12:26:00,
2013-11-18 05:31:00,48.0,43.1,29.99,West,267,0.0,0.0,83,0.00,,---,0.00,VWS V14.00,2013-11-18 12:31:00,
2013-11-18 05:36:00,47.7,41.8,30.00,West,267,0.0,0.0,80,0.00,,---,0.00,VWS V14.00,2013-11-18 12:36:00,
2013-11-18 05:41:00,47.4,41.9,30.00,West,267,0.0,0.0,81,0.00,,---,0.00,VWS V14.00,2013-11-18 12:41:00,
2013-11-18 05:46:00,47.1,41.9,30.00,West,267,0.0,0.0,82,0.00,,---,0.00,VWS V14.00,2013-11-18 12:46:00,
2013-11-18 05:51:00,47.0,42.1,30.00,West,267,0.0,0.0,83,0.00,,---,0.00,VWS V14.00,2013-11-18 12:51:00,
2013-11-18 05:56:00,46.8,41.9,30.01,West,267,0.0,0.0,83,0.00,,---,0.00,VWS V14.00,2013-11-18 12:56:00,
2013-11-18 06:01:00,46.8,42.5,30.00,West,267,0.0,0.0,85,0.00,,---,0.00,VWS V14.00,2013-11-18 13:01:00,
2013-11-18 06:06:00,47.1,43.4,30.00,West,267,0.0,0.0,87,0.00,,---,0.00,VWS V14.00,2013-11-18 13:06:00,
2013-11-18 06:11:00,47.7,44.3,30.00,West,267,0.0,0.0,88,0.00,,---,0.00,VWS V14.00,2013-11-18 13:11:00,
2013-11-18 06:16:00,48.1,44.4,30.00,West,267,0.0,0.0,87,0.00,,---,0.00,VWS V14.00,2013-11-18 13:16:00,
2013-11-18 06:21:00,48.2,44.2,30.01,West,267,0.0,0.0,86,0.00,,---,0.00,VWS V14.00,2013-11-18 13:21:00,
2013-11-18 06:26:00,48.7,45.0,30.01,West,267,0.0,0.0,87,0.00,,---,0.00,VWS V14.00,2013-11-18 13:26:00,
2013-11-18 06:31:00,49.2,45.2,30.01,West,267,0.0,0.0,86,0.00,,---,0.00,VWS V14.00,2013-11-18 13:31:00,
2013-11-18 06:36:00,49.2,44.9,30.01,West,267,0.0,0.0,85,0.00,,---,0.00,VWS V14.00,2013-11-18 13:36:00,
2013-11-18 06:41:00,49.1,44.8,30.01,West,267,0.0,0.0,85,0.00,,---,0.00,VWS V14.00,2013-11-18 13:41:00,
2013-11-18 06:46:00,49.5,45.2,30.01,West,280,0.0,1.0,85,0.00,,---,0.00,VWS V14.00,2013-11-18 13:46:00,
2013-11-18 06:51:00,49.7,45.1,30.01,West,280,0.0,1.0,84,0.00,,---,0.00,VWS V14.00,2013-11-18 13:51:00,
2013-11-18 06:56:00,49.8,44.8,30.01,West,280,0.0,1.0,83,0.00,,---,0.00,VWS V14.00,2013-11-18 13:56:00,
2013-11-18 07:01:00,49.7,44.8,30.01,West,280,0.0,0.0,83,0.00,,---,0.00,VWS V14.00,2013-11-18 14:01:00,
2013-11-18 07:06:00,49.8,44.8,30.01,West,280,0.0,0.0,83,0.00,,---,0.00,VWS V14.00,2013-11-18 14:06:00,
2013-11-18 07:10:00,50.0,45.0,30.01,West,280,0.0,0.0,83,0.00,,---,0.00,VWS V14.00,2013-11-18 14:10:00,
2013-11-18 07:15:00,50.1,44.8,30.01,West,280,0.0,0.0,82,0.00,,---,0.00,VWS V14.00,2013-11-18 14:15:00,
2013-11-18 07:20:00,50.1,44.8,30.01,West,280,0.0,0.0,82,0.00,,---,0.00,VWS V14.00,2013-11-18 14:20:00,
2013-11-18 07:25:00,50.2,44.6,30.01,West,280,0.0,0.0,81,0.00,,---,0.00,VWS V14.00,2013-11-18 14:25:00,
2013-11-18 07:30:00,50.2,44.3,30.01,West,280,0.0,0.0,80,0.00,,---,0.00,VWS V14.00,2013-11-18 14:30:00,
2013-11-18 07:35:00,50.3,44.4,30.01,West,280,0.0,0.0,80,0.00,,---,0.00,VWS V14.00,2013-11-18 14:35:00,
2013-11-18 07:40:00,51.0,45.1,30.01,West,280,0.0,0.0,80,0.00,,---,0.00,VWS V14.00,2013-11-18 14:40:00,
2013-11-18 07:45:00,52.3,45.3,30.02,West,280,0.0,0.0,77,0.00,,---,0.00,VWS V14.00,2013-11-18 14:45:00,
2013-11-18 07:50:00,53.6,45.9,30.02,West,280,0.0,0.0,75,0.00,,---,0.00,VWS V14.00,2013-11-18 14:50:00,
2013-11-18 07:55:00,54.9,46.1,30.02,West,280,0.0,0.0,72,0.00,,---,0.00,VWS V14.00,2013-11-18 14:55:00,
2013-11-18 08:00:00,56.6,47.3,30.02,WNW,288,0.0,2.0,71,0.00,,---,0.00,VWS V14.00,2013-11-18 15:00:00,
2013-11-18 08:05:00,58.2,47.7,30.02,NNE,24,5.0,5.0,68,0.00,,---,0.00,VWS V14.00,2013-11-18 15:05:00,
2013-11-18 08:10:00,59.3,48.0,30.02,ENE,71,0.0,6.0,66,0.00,,---,0.00,VWS V14.00,2013-11-18 15:10:00,
2013-11-18 08:15:00,60.0,47.8,30.02,ENE,68,0.0,6.0,64,0.00,,---,0.00,VWS V14.00,2013-11-18 15:15:00,
2013-11-18 08:20:00,60.5,48.3,30.02,ENE,67,4.0,6.0,64,0.00,,---,0.00,VWS V14.00,2013-11-18 15:20:00,
2013-11-18 08:25:00,61.0,48.3,30.02,East,92,4.0,6.0,63,0.00,,---,0.00,VWS V14.00,2013-11-18 15:25:00,
2013-11-18 08:30:00,61.6,47.6,30.02,ENE,78,4.0,7.0,60,0.00,,---,0.00,VWS V14.00,2013-11-18 15:30:00,
2013-11-18 08:35:00,61.8,47.3,30.02,ENE,70,5.0,9.0,59,0.00,,---,0.00,VWS V14.00,2013-11-18 15:35:00,
2013-11-18 08:40:00,61.9,47.4,30.02,ENE,65,5.0,11.0,59,0.00,,---,0.00,VWS V14.00,2013-11-18 15:40:00,
2013-11-18 08:45:00,62.1,47.6,30.02,ENE,68,2.0,11.0,59,0.00,,---,0.00,VWS V14.00,2013-11-18 15:45:00,
2013-11-18 08:50:00,62.3,47.3,30.02,ENE,65,6.0,11.0,58,0.00,,---,0.00,VWS V14.00,2013-11-18 15:50:00,
2013-11-18 08:51:00,62.3,47.3,30.02,ENE,66,4.0,11.0,58,0.00,,---,0.00,VWS V14.00,2013-11-18 15:51:00,
2013-11-18 08:56:00,62.4,47.5,30.02,ENE,78,5.0,11.0,58,0.00,,---,0.00,VWS V14.00,2013-11-18 15:56:00,
2013-11-18 09:01:00,62.6,47.2,30.02,ENE,65,6.0,9.0,57,0.00,,---,0.00,VWS V14.00,2013-11-18 16:01:00,
2013-11-18 09:06:00,62.0,47.5,30.03,ENE,57,6.0,9.0,59,0.00,,---,0.00,VWS V14.00,2013-11-18 16:06:00,
2013-11-18 09:11:00,62.3,48.2,30.03,ENE,65,8.0,10.0,60,0.00,,---,0.00,VWS V14.00,2013-11-18 16:11:00,
2013-11-18 09:16:00,63.1,48.6,30.02,ENE,65,4.0,10.0,59,0.00,,---,0.00,VWS V14.00,2013-11-18 16:16:00,
2013-11-18 09:21:00,63.7,47.2,30.02,East,84,0.0,10.0,55,0.00,,---,0.00,VWS V14.00,2013-11-18 16:21:00,
2013-11-18 09:26:00,64.3,47.3,30.02,ENE,67,3.0,10.0,54,0.00,,---,0.00,VWS V14.00,2013-11-18 16:26:00,
2013-11-18 09:31:00,65.1,46.0,30.02,SE,136,0.0,0.0,50,0.00,,---,0.00,VWS V14.00,2013-11-18 16:31:00,
2013-11-18 09:36:00,64.9,45.8,30.02,SSW,210,0.0,5.0,50,0.00,,---,0.00,VWS V14.00,2013-11-18 16:36:00,
2013-11-18 09:41:00,65.2,44.5,30.02,SE,128,0.0,6.0,47,0.00,,---,0.00,VWS V14.00,2013-11-18 16:41:00,
2013-11-18 09:46:00,64.8,45.7,30.02,SSW,196,4.0,9.0,50,0.00,,---,0.00,VWS V14.00,2013-11-18 16:46:00,
2013-11-18 09:51:00,64.5,45.5,30.03,SSW,197,0.0,9.0,50,0.00,,---,0.00,VWS V14.00,2013-11-18 16:51:00,
2013-11-18 09:56:00,65.0,44.3,30.02,SE,126,5.0,9.0,47,0.00,,---,0.00,VWS V14.00,2013-11-18 16:56:00,
2013-11-18 10:01:00,64.9,44.8,30.03,SSE,155,5.0,10.0,48,0.00,,---,0.00,VWS V14.00,2013-11-18 17:01:00,
2013-11-18 10:06:00,65.0,44.8,30.02,South,175,0.0,10.0,48,0.00,,---,0.00,VWS V14.00,2013-11-18 17:06:00,
2013-11-18 10:11:00,65.4,45.2,30.02,SSW,201,4.0,10.0,48,0.00,,---,0.00,VWS V14.00,2013-11-18 17:11:00,
2013-11-18 10:16:00,65.5,45.3,30.02,SE,138,4.0,10.0,48,0.00,,---,0.00,VWS V14.00,2013-11-18 17:16:00,
2013-11-18 10:21:00,66.4,45.0,30.02,SSE,167,5.0,10.0,46,0.00,,---,0.00,VWS V14.00,2013-11-18 17:21:00,
2013-11-18 10:26:00,66.2,45.4,30.02,South,171,0.0,11.0,47,0.00,,---,0.00,VWS V14.00,2013-11-18 17:26:00,
2013-11-18 10:31:00,66.2,46.0,30.02,SE,135,0.0,0.0,48,0.00,,---,0.00,VWS V14.00,2013-11-18 17:31:00,
2013-11-18 10:36:00,66.2,46.0,30.02,SSW,192,4.0,9.0,48,0.00,,---,0.00,VWS V14.00,2013-11-18 17:36:00,
2013-11-18 10:41:00,65.7,46.0,30.02,SE,133,3.0,9.0,49,0.00,,---,0.00,VWS V14.00,2013-11-18 17:41:00,
2013-11-18 10:46:00,65.2,46.6,30.02,South,179,0.0,11.0,51,0.00,,---,0.00,VWS V14.00,2013-11-18 17:46:00,
2013-11-18 10:51:00,65.0,46.5,30.02,ESE,120,3.0,11.0,51,0.00,,---,0.00,VWS V14.00,2013-11-18 17:51:00,
2013-11-18 10:56:00,65.3,46.7,30.01,ESE,115,3.0,11.0,51,0.00,,---,0.00,VWS V14.00,2013-11-18 17:56:00,
2013-11-18 11:01:00,65.3,46.7,30.01,ENE,74,0.0,0.0,51,0.00,,---,0.00,VWS V14.00,2013-11-18 18:01:00,
2013-11-18 11:06:00,65.8,46.1,30.01,SSE,161,6.0,10.0,49,0.00,,---,0.00,VWS V14.00,2013-11-18 18:06:00,
2013-11-18 11:11:00,65.6,46.0,30.00,South,181,9.0,10.0,49,0.00,,---,0.00,VWS V14.00,2013-11-18 18:11:00,
2013-11-18 11:16:00,65.1,44.9,30.00,SSW,207,5.0,13.0,48,0.00,,---,0.00,VWS V14.00,2013-11-18 18:16:00,
2013-11-18 11:21:00,65.5,45.8,30.00,SW,216,3.0,13.0,49,0.00,,---,0.00,VWS V14.00,2013-11-18 18:21:00,
2013-11-18 11:26:00,66.1,45.9,29.99,SW,222,4.0,13.0,48,0.00,,---,0.00,VWS V14.00,2013-11-18 18:26:00,
2013-11-18 11:31:00,66.4,45.6,29.99,ESE,115,7.0,11.0,47,0.00,,---,0.00,VWS V14.00,2013-11-18 18:31:00,
2013-11-18 11:36:00,67.0,43.2,29.99,East,96,6.0,15.0,42,0.00,,---,0.00,VWS V14.00,2013-11-18 18:36:00,
2013-11-18 11:41:00,67.7,43.8,29.99,SE,134,11.0,15.0,42,0.00,,---,0.00,VWS V14.00,2013-11-18 18:41:00,
2013-11-18 11:46:00,68.4,43.2,29.99,ESE,116,3.0,15.0,40,0.00,,---,0.00,VWS V14.00,2013-11-18 18:46:00,
2013-11-18 11:51:00,67.7,43.2,29.99,SE,124,0.0,15.0,41,0.00,,---,0.00,VWS V14.00,2013-11-18 18:51:00,
2013-11-18 11:56:00,67.0,42.5,29.98,ESE,122,0.0,15.0,41,0.00,,---,0.00,VWS V14.00,2013-11-18 18:56:00,
2013-11-18 12:01:00,67.1,43.3,29.97,ESE,122,0.0,5.0,42,0.00,,---,0.00,VWS V14.00,2013-11-18 19:01:00,
2013-11-18 12:06:00,67.2,42.7,29.97,South,179,5.0,7.0,41,0.00,,---,0.00,VWS V14.00,2013-11-18 19:06:00,
2013-11-18 12:11:00,66.8,41.7,29.97,SSE,153,10.0,10.0,40,0.00,,---,0.00,VWS V14.00,2013-11-18 19:11:00,
2013-11-18 12:16:00,67.1,42.6,29.96,South,175,0.0,10.0,41,0.00,,---,0.00,VWS V14.00,2013-11-18 19:16:00,
2013-11-18 12:21:00,67.2,42.1,29.96,SE,146,0.0,10.0,40,0.00,,---,0.00,VWS V14.00,2013-11-18 19:21:00,
2013-11-18 12:26:00,67.1,43.3,29.96,SE,146,11.0,14.0,42,0.00,,---,0.00,VWS V14.00,2013-11-18 19:26:00,
2013-11-18 12:31:00,67.8,42.6,29.96,SSE,159,3.0,5.0,40,0.00,,---,0.00,VWS V14.00,2013-11-18 19:31:00,
2013-11-18 12:36:00,67.9,42.1,29.96,SSE,151,0.0,10.0,39,0.00,,---,0.00,VWS V14.00,2013-11-18 19:36:00,
2013-11-18 12:41:00,67.5,42.3,29.96,SSE,150,0.0,10.0,40,0.00,,---,0.00,VWS V14.00,2013-11-18 19:41:00,
2013-11-18 12:46:00,67.1,43.3,29.96,SSE,150,0.0,10.0,42,0.00,,---,0.00,VWS V14.00,2013-11-18 19:46:00,
2013-11-18 12:51:00,66.8,42.4,29.96,SSW,209,6.0,10.0,41,0.00,,---,0.00,VWS V14.00,2013-11-18 19:51:00,
2013-11-18 12:56:00,66.3,42.5,29.95,South,191,0.0,11.0,42,0.00,,---,0.00,VWS V14.00,2013-11-18 19:56:00,
2013-11-18 13:01:00,66.4,43.2,29.95,South,191,0.0,0.0,43,0.00,,---,0.00,VWS V14.00,2013-11-18 20:01:00,
2013-11-18 13:06:00,67.2,43.4,29.94,South,191,0.0,0.0,42,0.00,,---,0.00,VWS V14.00,2013-11-18 20:06:00,
2013-11-18 13:11:00,68.1,38.7,29.94,ESE,109,0.0,9.0,34,0.00,,---,0.00,VWS V14.00,2013-11-18 20:11:00,
2013-11-18 13:16:00,69.0,39.5,29.94,SSE,167,2.0,12.0,34,0.00,,---,0.00,VWS V14.00,2013-11-18 20:16:00,
2013-11-18 13:21:00,69.4,41.3,29.93,South,170,3.0,13.0,36,0.00,,---,0.00,VWS V14.00,2013-11-18 20:21:00,
2013-11-18 13:26:00,69.2,41.1,29.93,South,176,0.0,13.0,36,0.00,,---,0.00,VWS V14.00,2013-11-18 20:26:00,
2013-11-18 13:31:00,69.6,42.2,29.93,SE,138,0.0,0.0,37,0.00,,---,0.00,VWS V14.00,2013-11-18 20:31:00,
2013-11-18 13:36:00,69.2,41.1,29.93,ESE,105,3.0,9.0,36,0.00,,---,0.00,VWS V14.00,2013-11-18 20:36:00,
2013-11-18 13:41:00,68.7,42.1,29.92,SE,131,0.0,9.0,38,0.00,,---,0.00,VWS V14.00,2013-11-18 20:41:00,
2013-11-18 13:46:00,68.8,42.2,29.92,South,173,0.0,9.0,38,0.00,,---,0.00,VWS V14.00,2013-11-18 20:46:00,
2013-11-18 13:51:00,69.1,42.5,29.92,SW,227,0.0,9.0,38,0.00,,---,0.00,VWS V14.00,2013-11-18 20:51:00,
2013-11-18 13:56:00,69.3,41.2,29.92,ESE,115,6.0,13.0,36,0.00,,---,0.00,VWS V14.00,2013-11-18 20:56:00,
2013-11-18 14:01:00,69.4,41.3,29.92,South,180,0.0,6.0,36,0.00,,---,0.00,VWS V14.00,2013-11-18 21:01:00,
2013-11-18 14:07:00,69.2,41.8,29.92,South,174,4.0,6.0,37,0.00,,---,0.00,VWS V14.00,2013-11-18 21:07:00,
2013-11-18 14:12:00,68.8,42.2,29.92,SSW,202,0.0,6.0,38,0.00,,---,0.00,VWS V14.00,2013-11-18 21:12:00,
2013-11-18 14:17:00,68.2,41.0,29.92,South,188,6.0,10.0,37,0.00,,---,0.00,VWS V14.00,2013-11-18 21:17:00,
2013-11-18 14:22:00,68.3,41.0,29.91,SSE,150,0.0,10.0,37,0.00,,---,0.00,VWS V14.00,2013-11-18 21:22:00,
2013-11-18 14:26:00,68.8,40.8,29.91,ESE,122,0.0,10.0,36,0.00,,---,0.00,VWS V14.00,2013-11-18 21:26:00,
2013-11-18 14:31:00,69.3,39.8,29.91,SSE,155,1.0,5.0,34,0.00,,---,0.00,VWS V14.00,2013-11-18 21:31:00,
2013-11-18 14:36:00,69.9,39.5,29.91,SSE,157,0.0,7.0,33,0.00,,---,0.00,VWS V14.00,2013-11-18 21:36:00,
2013-11-18 14:41:00,70.1,38.9,29.91,SSW,213,0.0,12.0,32,0.00,,---,0.00,VWS V14.00,2013-11-18 21:41:00,
2013-11-18 14:46:00,70.2,39.0,29.91,SE,144,0.0,12.0,32,0.00,,---,0.00,VWS V14.00,2013-11-18 21:46:00,
2013-11-18 14:51:00,70.3,39.1,29.91,South,185,5.0,12.0,32,0.00,,---,0.00,VWS V14.00,2013-11-18 21:51:00,
2013-11-18 14:56:00,70.3,39.1,29.91,SSE,160,5.0,12.0,32,0.00,,---,0.00,VWS V14.00,2013-11-18 21:56:00,
2013-11-18 15:01:00,70.4,38.3,29.90,South,173,3.0,9.0,31,0.00,,---,0.00,VWS V14.00,2013-11-18 22:01:00,
2013-11-18 15:07:00,70.1,38.1,29.91,SE,142,0.0,9.0,31,0.00,,---,0.00,VWS V14.00,2013-11-18 22:07:00,
2013-11-18 15:11:00,70.3,38.3,29.90,SE,142,0.0,9.0,31,0.00,,---,0.00,VWS V14.00,2013-11-18 22:11:00,
2013-11-18 15:16:00,70.4,37.5,29.90,SE,142,2.0,10.0,30,0.00,,---,0.00,VWS V14.00,2013-11-18 22:16:00,
2013-11-18 15:21:00,70.3,36.6,29.90,SSE,150,6.0,11.0,29,0.00,,---,0.00,VWS V14.00,2013-11-18 22:21:00,
2013-11-18 15:26:00,70.3,36.6,29.90,SE,140,0.0,11.0,29,0.00,,---,0.00,VWS V14.00,2013-11-18 22:26:00,
2013-11-18 15:31:00,70.4,37.5,29.91,SSW,208,0.0,10.0,30,0.00,,---,0.00,VWS V14.00,2013-11-18 22:31:00,
2013-11-18 15:36:00,70.3,37.4,29.91,SSW,203,0.0,10.0,30,0.00,,---,0.00,VWS V14.00,2013-11-18 22:36:00,
2013-11-18 15:41:00,70.4,38.3,29.91,SSE,159,0.0,10.0,31,0.00,,---,0.00,VWS V14.00,2013-11-18 22:41:00,
2013-11-18 15:46:00,70.6,38.5,29.91,SSE,159,0.0,10.0,31,0.00,,---,0.00,VWS V14.00,2013-11-18 22:46:00,
2013-11-18 15:51:00,70.7,37.8,29.91,SSE,159,0.0,10.0,30,0.00,,---,0.00,VWS V14.00,2013-11-18 22:51:00,
2013-11-18 15:56:00,70.8,37.0,29.91,SSW,200,0.0,10.0,29,0.00,,---,0.00,VWS V14.00,2013-11-18 22:56:00,
2013-11-18 16:01:00,70.5,36.7,29.90,SSW,202,0.0,0.0,29,0.00,,---,0.00,VWS V14.00,2013-11-18 23:01:00,
2013-11-18 16:06:00,70.3,37.4,29.90,SW,221,5.0,7.0,30,0.00,,---,0.00,VWS V14.00,2013-11-18 23:06:00,
2013-11-18 16:11:00,69.9,36.2,29.90,South,184,0.0,10.0,29,0.00,,---,0.00,VWS V14.00,2013-11-18 23:11:00,
2013-11-18 16:16:00,69.5,35.0,29.91,SSE,162,0.0,10.0,28,0.00,,---,0.00,VWS V14.00,2013-11-18 23:16:00,
2013-11-18 16:21:00,69.3,35.7,29.91,SSE,161,1.0,10.0,29,0.00,,---,0.00,VWS V14.00,2013-11-18 23:21:00,
2013-11-18 16:26:00,69.0,35.5,29.91,SSE,162,4.0,10.0,29,0.00,,---,0.00,VWS V14.00,2013-11-18 23:26:00,
2013-11-18 16:31:00,68.8,35.3,29.91,SSE,159,0.0,4.0,29,0.00,,---,0.00,VWS V14.00,2013-11-18 23:31:00,
2013-11-18 16:36:00,68.5,35.0,29.91,SSE,160,3.0,6.0,29,0.00,,---,0.00,VWS V14.00,2013-11-18 23:36:00,
2013-11-18 16:41:00,68.0,35.4,29.91,SSE,162,4.0,6.0,30,0.00,,---,0.00,VWS V14.00,2013-11-18 23:41:00,
2013-11-18 16:46:00,67.5,35.0,29.91,SSE,163,0.0,6.0,30,0.00,,---,0.00,VWS V14.00,2013-11-18 23:46:00,
2013-11-18 16:51:00,67.2,34.8,29.91,SSE,163,0.0,6.0,30,0.00,,---,0.00,VWS V14.00,2013-11-18 23:51:00,
2013-11-18 16:56:00,66.8,35.2,29.91,SSE,163,0.0,6.0,31,0.00,,---,0.00,VWS V14.00,2013-11-18 23:56:00,
2013-11-18 17:01:00,66.1,34.6,29.91,SSE,163,0.0,0.0,31,0.00,,---,0.00,VWS V14.00,2013-11-19 00:01:00,
2013-11-18 17:06:00,65.7,35.1,29.91,SSE,163,0.0,0.0,32,0.00,,---,0.00,VWS V14.00,2013-11-19 00:06:00,
2013-11-18 17:11:00,65.4,35.6,29.90,SSE,163,0.0,0.0,33,0.00,,---,0.00,VWS V14.00,2013-11-19 00:11:00,
2013-11-18 17:16:00,65.0,35.2,29.90,SSE,163,0.0,0.0,33,0.00,,---,0.00,VWS V14.00,2013-11-19 00:16:00,
2013-11-18 17:21:00,64.5,34.8,29.90,SSE,163,0.0,0.0,33,0.00,,---,0.00,VWS V14.00,2013-11-19 00:21:00,
2013-11-18 17:26:00,63.7,34.8,29.91,SSE,163,0.0,0.0,34,0.00,,---,0.00,VWS V14.00,2013-11-19 00:26:00,
2013-11-18 17:31:00,62.8,34.8,29.91,SSE,163,0.0,0.0,35,0.00,,---,0.00,VWS V14.00,2013-11-19 00:31:00,
2013-11-18 17:36:00,61.4,34.2,29.91,SSE,163,0.0,0.0,36,0.00,,---,0.00,VWS V14.00,2013-11-19 00:36:00,
2013-11-18 17:41:00,59.7,34.1,29.91,SSE,163,0.0,0.0,38,0.00,,---,0.00,VWS V14.00,2013-11-19 00:41:00,
2013-11-18 17:46:00,58.5,33.7,29.91,SSE,163,0.0,0.0,39,0.00,,---,0.00,VWS V14.00,2013-11-19 00:46:00,
2013-11-18 17:51:00,57.5,33.4,29.91,SSE,163,0.0,0.0,40,0.00,,---,0.00,VWS V14.00,2013-11-19 00:51:00,
2013-11-18 17:56:00,57.2,33.7,29.91,SSE,163,0.0,0.0,41,0.00,,---,0.00,VWS V14.00,2013-11-19 00:56:00,
2013-11-18 18:01:00,57.2,33.1,29.91,SSE,163,0.0,0.0,40,0.00,,---,0.00,VWS V14.00,2013-11-19 01:01:00,
2013-11-18 18:06:00,57.1,33.0,29.92,SSE,163,0.0,0.0,40,0.00,,---,0.00,VWS V14.00,2013-11-19 01:06:00,
2013-11-18 18:11:00,57.1,33.0,29.92,SSE,163,0.0,0.0,40,0.00,,---,0.00,VWS V14.00,2013-11-19 01:11:00,
2013-11-18 18:16:00,57.1,33.6,29.92,SSE,163,0.0,0.0,41,0.00,,---,0.00,VWS V14.00,2013-11-19 01:16:00,
2013-11-18 18:21:00,57.2,33.7,29.92,SSE,163,0.0,0.0,41,0.00,,---,0.00,VWS V14.00,2013-11-19 01:21:00,
2013-11-18 18:26:00,57.7,34.2,29.92,ESE,117,0.0,5.0,41,0.00,,---,0.00,VWS V14.00,2013-11-19 01:26:00,
2013-11-18 18:31:00,58.9,35.3,29.92,SE,139,0.0,0.0,41,0.00,,---,0.00,VWS V14.00,2013-11-19 01:31:00,
2013-11-18 18:36:00,59.3,34.4,29.92,SE,139,0.0,0.0,39,0.00,,---,0.00,VWS V14.00,2013-11-19 01:36:00,
2013-11-18 18:41:00,58.9,34.6,29.92,SE,139,0.0,0.0,40,0.00,,---,0.00,VWS V14.00,2013-11-19 01:41:00,
2013-11-18 18:44:00,58.5,34.3,29.93,SE,139,0.0,0.0,40,0.00,,---,0.00,VWS V14.00,2013-11-19 01:44:00,
2013-11-18 18:49:00,57.7,34.8,29.93,SE,139,0.0,0.0,42,0.00,,---,0.00,VWS V14.00,2013-11-19 01:49:00,
2013-11-18 18:54:00,56.7,33.9,29.93,SE,139,0.0,0.0,42,0.00,,---,0.00,VWS V14.00,2013-11-19 01:54:00,
2013-11-18 18:59:00,55.5,34.0,29.93,SE,139,0.0,0.0,44,0.00,,---,0.00,VWS V14.00,2013-11-19 01:59:00,
2013-11-18 19:04:00,54.9,34.0,29.93,SE,139,0.0,0.0,45,0.00,,---,0.00,VWS V14.00,2013-11-19 02:04:00,
2013-11-18 19:09:00,55.1,34.7,29.93,SE,139,0.0,0.0,46,0.00,,---,0.00,VWS V14.00,2013-11-19 02:09:00,
2013-11-18 19:14:00,55.5,35.1,29.93,SE,139,0.0,0.0,46,0.00,,---,0.00,VWS V14.00,2013-11-19 02:14:00,
2013-11-18 19:19:00,55.8,34.8,29.93,SE,139,0.0,0.0,45,0.00,,---,0.00,VWS V14.00,2013-11-19 02:19:00,
2013-11-18 19:24:00,55.9,34.9,29.93,SE,139,0.0,0.0,45,0.00,,---,0.00,VWS V14.00,2013-11-19 02:24:00,
2013-11-18 19:29:00,55.8,35.3,29.94,SE,139,0.0,0.0,46,0.00,,---,0.00,VWS V14.00,2013-11-19 02:29:00,
2013-11-18 19:34:00,55.8,34.8,29.94,SE,139,0.0,0.0,45,0.00,,---,0.00,VWS V14.00,2013-11-19 02:34:00,
2013-11-18 19:39:00,55.5,35.6,29.94,SE,139,0.0,0.0,47,0.00,,---,0.00,VWS V14.00,2013-11-19 02:39:00,
2013-11-18 19:44:00,55.8,35.9,29.94,SE,139,0.0,3.0,47,0.00,,---,0.00,VWS V14.00,2013-11-19 02:44:00,
2013-11-18 19:48:00,55.8,36.4,29.94,SE,139,0.0,3.0,48,0.00,,---,0.00,VWS V14.00,2013-11-19 02:48:00,
2013-11-18 19:53:00,55.7,36.3,29.94,SE,139,0.0,3.0,48,0.00,,---,0.00,VWS V14.00,2013-11-19 02:53:00,
2013-11-18 19:58:00,55.1,36.3,29.94,SE,139,0.0,3.0,49,0.00,,---,0.00,VWS V14.00,2013-11-19 02:58:00,
2013-11-18 20:03:00,54.8,37.5,29.94,SE,139,0.0,0.0,52,0.00,,---,0.00,VWS V14.00,2013-11-19 03:03:00,
2013-11-18 20:08:00,54.8,37.5,29.94,SE,139,0.0,0.0,52,0.00,,---,0.00,VWS V14.00,2013-11-19 03:08:00,
2013-11-18 20:13:00,54.9,37.6,29.94,SE,139,0.0,0.0,52,0.00,,---,0.00,VWS V14.00,2013-11-19 03:13:00,
2013-11-18 20:18:00,54.6,37.3,29.94,SE,139,0.0,0.0,52,0.00,,---,0.00,VWS V14.00,2013-11-19 03:18:00,
2013-11-18 20:23:00,54.5,37.7,29.94,SE,139,0.0,0.0,53,0.00,,---,0.00,VWS V14.00,2013-11-19 03:23:00,
2013-11-18 20:28:00,54.5,37.2,29.94,SE,139,0.0,0.0,52,0.00,,---,0.00,VWS V14.00,2013-11-19 03:28:00,
2013-11-18 20:33:00,54.6,37.3,29.94,SE,138,0.0,0.0,52,0.00,,---,0.00,VWS V14.00,2013-11-19 03:33:00,
2013-11-18 20:38:00,54.8,37.0,29.95,SE,138,0.0,0.0,51,0.00,,---,0.00,VWS V14.00,2013-11-19 03:38:00,
2013-11-18 20:43:00,54.7,37.4,29.94,SE,138,0.0,0.0,52,0.00,,---,0.00,VWS V14.00,2013-11-19 03:43:00,
2013-11-18 20:48:00,54.6,37.3,29.94,SE,138,0.0,0.0,52,0.00,,---,0.00,VWS V14.00,2013-11-19 03:48:00,
2013-11-18 20:53:00,54.5,36.8,29.95,SE,138,0.0,0.0,51,0.00,,---,0.00,VWS V14.00,2013-11-19 03:53:00,
2013-11-18 20:58:00,53.9,36.7,29.95,SE,139,0.0,0.0,52,0.00,,---,0.00,VWS V14.00,2013-11-19 03:58:00,
2013-11-18 21:03:00,53.1,36.0,29.95,SE,138,0.0,0.0,52,0.00,,---,0.00,VWS V14.00,2013-11-19 04:03:00,
2013-11-18 21:07:00,52.5,35.4,29.95,SE,138,0.0,0.0,52,0.00,,---,0.00,VWS V14.00,2013-11-19 04:07:00,
2013-11-18 21:12:00,51.6,35.0,29.95,SE,138,0.0,0.0,53,0.00,,---,0.00,VWS V14.00,2013-11-19 04:12:00,
2013-11-18 21:17:00,50.4,34.4,29.95,SE,138,0.0,0.0,54,0.00,,---,0.00,VWS V14.00,2013-11-19 04:17:00,
2013-11-18 21:22:00,49.4,34.8,29.95,SE,138,0.0,0.0,57,0.00,,---,0.00,VWS V14.00,2013-11-19 04:22:00,
2013-11-18 21:27:00,49.1,35.0,29.95,SE,138,0.0,0.0,58,0.00,,---,0.00,VWS V14.00,2013-11-19 04:27:00,
2013-11-18 21:32:00,48.7,35.0,29.95,SE,138,0.0,0.0,59,0.00,,---,0.00,VWS V14.00,2013-11-19 04:32:00,
2013-11-18 21:37:00,48.5,35.7,29.95,SE,138,0.0,0.0,61,0.00,,---,0.00,VWS V14.00,2013-11-19 04:37:00,
2013-11-18 21:42:00,48.3,34.7,29.96,SE,138,0.0,0.0,59,0.00,,---,0.00,VWS V14.00,2013-11-19 04:42:00,
2013-11-18 21:47:00,47.5,34.3,29.95,SE,138,0.0,0.0,60,0.00,,---,0.00,VWS V14.00,2013-11-19 04:47:00,
2013-11-18 21:52:00,46.7,34.8,29.96,SE,138,0.0,0.0,63,0.00,,---,0.00,VWS V14.00,2013-11-19 04:52:00,
2013-11-18 21:57:00,46.8,34.9,29.96,SE,138,0.0,0.0,63,0.00,,---,0.00,VWS V14.00,2013-11-19 04:57:00,
2013-11-18 22:01:00,46.9,34.6,29.96,SE,139,0.0,0.0,62,0.00,,---,0.00,VWS V14.00,2013-11-19 05:01:00,
2013-11-18 22:06:00,46.7,35.6,29.96,SE,138,0.0,0.0,65,0.00,,---,0.00,VWS V14.00,2013-11-19 05:06:00,
2013-11-18 22:11:00,47.1,36.0,29.96,SE,138,0.0,0.0,65,0.00,,---,0.00,VWS V14.00,2013-11-19 05:11:00,
2013-11-18 22:16:00,47.5,36.3,29.96,SE,138,0.0,0.0,65,0.00,,---,0.00,VWS V14.00,2013-11-19 05:16:00,
2013-11-18 22:21:00,47.9,36.7,29.96,SE,138,0.0,0.0,65,0.00,,---,0.00,VWS V14.00,2013-11-19 05:21:00,
2013-11-18 22:26:00,47.9,36.3,29.96,SE,138,0.0,0.0,64,0.00,,---,0.00,VWS V14.00,2013-11-19 05:26:00,
2013-11-18 22:31:00,47.9,36.3,29.96,SE,138,0.0,0.0,64,0.00,,---,0.00,VWS V14.00,2013-11-19 05:31:00,
2013-11-18 22:36:00,48.0,36.4,29.97,SE,138,0.0,0.0,64,0.00,,---,0.00,VWS V14.00,2013-11-19 05:36:00,
2013-11-18 22:41:00,48.1,36.9,29.96,SE,138,0.0,0.0,65,0.00,,---,0.00,VWS V14.00,2013-11-19 05:41:00,
2013-11-18 22:46:00,48.2,35.8,29.97,SE,138,0.0,0.0,62,0.00,,---,0.00,VWS V14.00,2013-11-19 05:46:00,
2013-11-18 22:51:00,47.7,35.7,29.96,SE,138,0.0,0.0,63,0.00,,---,0.00,VWS V14.00,2013-11-19 05:51:00,
2013-11-18 22:56:00,47.5,36.3,29.97,SE,138,0.0,0.0,65,0.00,,---,0.00,VWS V14.00,2013-11-19 05:56:00,
2013-11-18 23:01:00,47.4,36.2,29.96,SE,138,0.0,0.0,65,0.00,,---,0.00,VWS V14.00,2013-11-19 06:01:00,
2013-11-18 23:06:00,47.3,36.5,29.96,SE,138,0.0,0.0,66,0.00,,---,0.00,VWS V14.00,2013-11-19 06:06:00,
2013-11-18 23:11:00,47.4,36.6,29.96,SE,138,0.0,0.0,66,0.00,,---,0.00,VWS V14.00,2013-11-19 06:11:00,
2013-11-18 23:16:00,47.7,36.9,29.96,SE,138,0.0,0.0,66,0.00,,---,0.00,VWS V14.00,2013-11-19 06:16:00,
2013-11-18 23:21:00,48.1,36.9,29.96,SE,138,0.0,0.0,65,0.00,,---,0.00,VWS V14.00,2013-11-19 06:21:00,
2013-11-18 23:26:00,48.2,37.0,29.97,SE,138,0.0,0.0,65,0.00,,---,0.00,VWS V14.00,2013-11-19 06:26:00,
2013-11-18 23:31:00,48.0,36.4,29.96,SE,138,0.0,0.0,64,0.00,,---,0.00,VWS V14.00,2013-11-19 06:31:00,
2013-11-18 23:36:00,47.7,36.1,29.96,SE,138,0.0,0.0,64,0.00,,---,0.00,VWS V14.00,2013-11-19 06:36:00,
2013-11-18 23:41:00,47.5,36.3,29.96,SE,138,0.0,0.0,65,0.00,,---,0.00,VWS V14.00,2013-11-19 06:41:00,
2013-11-18 23:46:00,47.6,36.8,29.97,SE,138,0.0,0.0,66,0.00,,---,0.00,VWS V14.00,2013-11-19 06:46:00,
2013-11-18 23:51:00,47.5,35.9,29.97,SE,138,0.0,0.0,64,0.00,,---,0.00,VWS V14.00,2013-11-19 06:51:00,
2013-11-18 23:56:00,46.9,34.6,29.96,SE,138,0.0,0.0,62,0.00,,---,0.00,VWS V14.00,2013-11-19 06:56:00,